createdAt,value
2022-08-26T00:02:20.654Z,23.00
2022-08-26T00:05:24.946Z,22.00
2022-08-26T00:08:28.212Z,25.00
2022-08-26T00:11:31.779Z,26.40
2022-08-26T00:14:35.070Z,24.60
2022-08-26T00:17:40.364Z,24.00
2022-08-26T00:20:43.822Z,23.00
2022-08-26T00:23:47.696Z,30.00
2022-08-26T00:26:51.684Z,24.00
2022-08-26T00:29:55.257Z,22.20
2022-08-26T00:33:03.167Z,18.60
2022-08-26T00:36:07.168Z,19.60
2022-08-26T00:39:10.946Z,23.20
2022-08-26T00:42:14.313Z,22.00
2022-08-26T00:45:19.543Z,16.20
2022-08-26T00:48:26.917Z,18.00
2022-08-26T00:51:41.815Z,21.60
2022-08-26T00:54:52.140Z,22.00
2022-08-26T00:57:57.287Z,21.25
2022-08-26T01:01:00.663Z,21.80
2022-08-26T01:04:06.027Z,17.00
2022-08-26T01:07:09.365Z,21.00
2022-08-26T01:10:17.114Z,22.40
2022-08-26T01:13:21.315Z,20.60
2022-08-26T01:16:25.951Z,17.00
2022-08-26T01:19:34.336Z,21.00
2022-08-26T01:22:52.249Z,24.00
2022-08-26T01:26:00.739Z,23.00
2022-08-26T01:29:06.683Z,26.00
2022-08-26T01:32:17.390Z,25.00
2022-08-26T01:35:21.498Z,26.40
2022-08-26T01:38:27.860Z,25.75
2022-08-26T01:41:36.588Z,21.00
2022-08-26T01:44:46.144Z,22.75
2022-08-26T01:47:56.986Z,19.33
2022-08-26T01:51:02.045Z,23.20
2022-08-26T01:54:12.044Z,21.50
2022-08-26T01:57:18.466Z,27.75
2022-08-26T02:00:23.445Z,24.00
2022-08-26T02:03:28.359Z,27.75
2022-08-26T02:06:33.459Z,26.00
2022-08-26T02:09:41.397Z,35.50
2022-08-26T02:12:44.937Z,29.40
2022-08-26T02:15:49.808Z,30.50
2022-08-26T02:18:55.283Z,29.00
2022-08-26T02:22:01.815Z,26.40
2022-08-26T02:25:17.691Z,30.00
2022-08-26T02:28:21.372Z,19.00
2022-08-26T02:31:30.674Z,26.20
2022-08-26T02:34:35.323Z,27.50
2022-08-26T02:37:39.460Z,22.00
2022-08-26T02:40:46.588Z,25.80
2022-08-26T02:43:51.523Z,29.00
2022-08-26T02:46:55.611Z,26.25
2022-08-26T02:49:59.622Z,24.00
2022-08-26T02:53:03.368Z,22.00
2022-08-26T02:56:10.634Z,25.00
2022-08-26T02:59:14.023Z,28.00
2022-08-26T03:02:19.346Z,32.00
2022-08-26T03:05:24.081Z,27.00
2022-08-26T03:08:27.417Z,29.00
2022-08-26T03:11:33.137Z,29.40
2022-08-26T03:14:36.656Z,26.60
2022-08-26T03:17:40.315Z,26.25
2022-08-26T03:20:43.997Z,24.00
2022-08-26T03:23:48.064Z,24.20
2022-08-26T03:26:53.194Z,28.25
2022-08-26T03:30:14.026Z,33.00
2022-08-26T03:33:19.156Z,32.50
2022-08-26T03:36:23.322Z,30.00
2022-08-26T03:39:28.020Z,32.00
2022-08-26T03:42:36.696Z,30.00
2022-08-26T03:45:40.956Z,34.60
2022-08-26T03:48:45.917Z,35.00
2022-08-26T03:51:49.294Z,35.00
2022-08-26T03:54:53.642Z,34.00
2022-08-26T03:57:58.285Z,32.00
2022-08-26T04:01:03.976Z,34.20
2022-08-26T04:04:08.027Z,36.20
2022-08-26T04:07:11.338Z,36.00
2022-08-26T04:10:20.198Z,38.80
2022-08-26T04:13:25.185Z,35.25
2022-08-26T04:16:30.353Z,35.60
2022-08-26T04:19:34.253Z,39.00
2022-08-26T04:22:37.551Z,35.40
2022-08-26T04:25:40.938Z,35.20
2022-08-26T04:28:45.655Z,32.00
2022-08-26T04:31:49.406Z,40.00
2022-08-26T04:34:53.000Z,36.00
2022-08-26T04:37:56.280Z,38.00
2022-08-26T04:41:00.733Z,34.25
2022-08-26T04:44:06.535Z,30.20
2022-08-26T04:47:09.997Z,34.40
2022-08-26T04:50:15.289Z,28.60
2022-08-26T04:53:27.323Z,26.00
2022-08-26T04:56:33.990Z,29.25
2022-08-26T04:59:39.567Z,25.50
2022-08-26T05:02:43.167Z,27.20
2022-08-26T05:05:49.995Z,28.80
2022-08-26T05:08:55.687Z,30.00
2022-08-26T05:11:59.458Z,35.00
2022-08-26T05:15:04.206Z,28.60
2022-08-26T05:18:10.586Z,33.75
2022-08-26T05:21:20.115Z,32.40
2022-08-26T05:24:23.541Z,30.00
2022-08-26T05:27:26.841Z,30.00
2022-08-26T05:30:32.432Z,34.25
2022-08-26T05:33:36.100Z,30.00
2022-08-26T05:36:44.596Z,24.50
2022-08-26T05:39:51.227Z,30.00
2022-08-26T05:42:55.015Z,31.25
2022-08-26T05:46:07.283Z,25.00
2022-08-26T05:49:12.492Z,29.00
2022-08-26T05:52:16.349Z,31.00
2022-08-26T05:55:21.086Z,37.60
2022-08-26T05:58:26.777Z,29.60
2022-08-26T06:01:31.642Z,33.00
2022-08-26T06:04:39.072Z,34.20
2022-08-26T06:07:59.611Z,35.00
2022-08-26T06:11:06.203Z,33.80
2022-08-26T06:14:11.000Z,40.75
2022-08-26T06:17:15.683Z,32.00
2022-08-26T06:20:19.142Z,33.25
2022-08-26T06:23:40.466Z,25.75
2022-08-26T06:26:50.293Z,32.33
2022-08-26T06:29:54.863Z,33.20
2022-08-26T06:33:01.147Z,23.20
2022-08-26T06:36:05.798Z,23.80
2022-08-26T06:39:11.916Z,22.60
2022-08-26T06:42:15.164Z,30.00
2022-08-26T06:45:18.660Z,24.00
2022-08-26T06:48:23.378Z,22.00
2022-08-26T06:51:29.222Z,20.00
2022-08-26T06:54:32.877Z,19.00
2022-08-26T06:57:37.709Z,23.00
2022-08-26T07:00:47.238Z,21.40
2022-08-26T07:03:55.055Z,15.20
2022-08-26T07:07:00.814Z,20.60
2022-08-26T07:10:04.190Z,22.00
2022-08-26T07:13:08.440Z,20.00
2022-08-26T07:16:14.460Z,22.00
2022-08-26T07:19:28.988Z,22.00
2022-08-26T07:22:37.222Z,20.00
2022-08-26T07:25:41.224Z,22.25
2022-08-26T07:28:46.289Z,24.00
2022-08-26T07:31:49.568Z,20.33
2022-08-26T07:34:54.224Z,21.00
2022-08-26T07:37:57.632Z,21.60
2022-08-26T07:41:01.959Z,19.00
2022-08-26T07:44:05.622Z,24.25
2022-08-26T07:47:24.103Z,23.00
2022-08-26T07:50:49.111Z,21.00
2022-08-26T07:53:54.734Z,18.00
2022-08-26T07:56:58.147Z,22.60
2022-08-26T08:00:02.333Z,20.00
2022-08-26T08:03:15.400Z,22.00
2022-08-26T08:06:20.355Z,23.60
2022-08-26T08:09:24.941Z,18.25
2022-08-26T08:12:28.148Z,21.00
2022-08-26T08:15:33.288Z,23.00
2022-08-26T08:18:40.184Z,23.00
2022-08-26T08:21:45.500Z,18.60
2022-08-26T08:24:49.669Z,21.00
2022-08-26T08:27:55.137Z,21.75
2022-08-26T08:31:00.652Z,21.60
2022-08-26T08:34:04.034Z,23.75
2022-08-26T08:37:10.843Z,21.00
2022-08-26T08:40:19.887Z,25.00
2022-08-26T08:43:32.556Z,21.60
2022-08-26T08:46:43.688Z,21.00
2022-08-26T08:49:47.577Z,22.60
2022-08-26T08:53:03.424Z,19.20
2022-08-26T08:56:17.129Z,19.60
2022-08-26T08:59:23.164Z,22.00
2022-08-26T09:02:35.243Z,21.00
2022-08-26T09:05:48.794Z,19.75
2022-08-26T09:08:53.804Z,17.00
2022-08-26T09:11:58.866Z,19.75
2022-08-26T09:15:06.026Z,18.00
2022-08-26T09:18:25.832Z,18.00
2022-08-26T09:21:29.984Z,18.60
2022-08-26T09:24:41.915Z,17.00
2022-08-26T09:27:54.469Z,18.00
2022-08-26T09:31:11.481Z,19.40
2022-08-26T09:34:18.434Z,17.40
2022-08-26T09:37:36.639Z,20.60
2022-08-26T09:40:41.308Z,19.00
2022-08-26T09:44:09.346Z,20.00
2022-08-26T09:47:23.400Z,19.00
2022-08-26T09:50:29.364Z,17.00
2022-08-26T09:53:36.671Z,20.00
2022-08-26T09:56:41.877Z,17.00
2022-08-26T09:59:45.805Z,19.00
2022-08-26T10:02:51.164Z,13.75
2022-08-26T10:06:00.111Z,14.60
2022-08-26T10:09:08.962Z,14.60
2022-08-26T10:12:21.334Z,16.00
2022-08-26T10:15:27.597Z,15.00
2022-08-26T10:18:34.790Z,12.00
2022-08-26T10:21:45.170Z,12.00
2022-08-26T10:24:55.421Z,14.50
2022-08-26T10:28:08.135Z,13.00
2022-08-26T10:31:27.848Z,14.40
2022-08-26T10:34:33.288Z,12.00
2022-08-26T10:37:41.261Z,13.00
2022-08-26T10:40:53.049Z,10.40
2022-08-26T10:44:00.752Z,10.00
2022-08-26T10:47:11.071Z,10.40
2022-08-26T10:50:15.224Z,11.60
2022-08-26T10:53:32.643Z,13.20
2022-08-26T10:56:49.582Z,11.00
2022-08-26T11:00:24.456Z,14.00
2022-08-26T11:03:39.009Z,8.00
2022-08-26T11:06:46.046Z,11.00
2022-08-26T11:09:49.781Z,12.00
2022-08-26T11:12:59.276Z,11.00
2022-08-26T11:16:04.368Z,12.00
2022-08-26T11:19:11.537Z,9.00
2022-08-26T11:22:26.935Z,9.60
2022-08-26T11:25:31.057Z,9.00
2022-08-26T11:28:36.776Z,10.40
2022-08-26T11:31:58.603Z,8.60
2022-08-26T11:35:04.812Z,12.40
2022-08-26T11:38:19.209Z,9.25
2022-08-26T11:41:29.230Z,10.00
2022-08-26T11:44:41.797Z,10.00
2022-08-26T11:47:55.140Z,6.60
2022-08-26T11:51:00.927Z,12.00
2022-08-26T11:54:14.049Z,11.00
2022-08-26T11:57:19.267Z,9.00
2022-08-26T12:00:33.553Z,8.20
2022-08-26T12:03:42.934Z,8.50
2022-08-26T12:06:52.510Z,9.25
2022-08-26T12:09:58.867Z,11.00
2022-08-26T12:13:05.346Z,7.60
2022-08-26T12:16:08.901Z,12.60
2022-08-26T12:19:32.913Z,9.40
2022-08-26T12:22:38.876Z,8.60
2022-08-26T12:25:47.338Z,9.40
2022-08-26T12:28:58.163Z,8.00
2022-08-26T12:32:10.377Z,7.25
2022-08-26T12:35:19.086Z,6.00
2022-08-26T12:38:22.801Z,7.80
2022-08-26T12:41:50.865Z,7.00
2022-08-26T12:45:01.013Z,6.00
2022-08-26T12:48:09.287Z,10.80
2022-08-26T12:51:23.758Z,11.00
2022-08-26T12:54:50.081Z,9.00
2022-08-26T12:58:12.550Z,8.00
2022-08-26T13:01:23.696Z,9.25
2022-08-26T13:04:35.531Z,8.00
2022-08-26T13:07:41.037Z,9.00
2022-08-26T13:10:47.539Z,8.00
2022-08-26T13:13:53.277Z,10.00
2022-08-26T13:16:56.804Z,8.20
2022-08-26T13:20:04.143Z,7.80
2022-08-26T13:23:09.583Z,7.00
2022-08-26T13:26:13.241Z,10.60
2022-08-26T13:29:17.623Z,9.25
2022-08-26T13:32:23.784Z,9.00
2022-08-26T13:35:30.846Z,10.40
2022-08-26T13:38:35.684Z,12.00
2022-08-26T13:41:39.701Z,11.00
2022-08-26T13:44:44.564Z,11.00
2022-08-26T13:47:48.660Z,10.00
2022-08-26T13:50:52.258Z,12.60
2022-08-26T13:53:57.841Z,9.00
2022-08-26T13:57:01.224Z,8.00
2022-08-26T14:00:05.752Z,9.00
2022-08-26T14:03:15.699Z,10.00
2022-08-26T14:06:20.205Z,9.00
2022-08-26T14:09:25.041Z,10.20
2022-08-26T14:12:28.786Z,10.00
2022-08-26T14:15:36.037Z,9.00
2022-08-26T14:18:43.051Z,9.60
2022-08-26T14:21:48.588Z,10.00
2022-08-26T14:24:53.377Z,10.00
2022-08-26T14:27:57.250Z,11.75
2022-08-26T14:31:00.688Z,11.00
2022-08-26T14:34:07.337Z,10.50
2022-08-26T14:37:13.506Z,10.00
2022-08-26T14:40:21.163Z,8.40
2022-08-26T14:43:24.591Z,10.20
2022-08-26T14:46:30.136Z,8.00
2022-08-26T14:49:33.662Z,9.00
2022-08-26T14:52:57.070Z,10.40
2022-08-26T14:56:01.849Z,8.00
2022-08-26T14:59:05.752Z,10.00
2022-08-26T15:02:13.810Z,9.00
2022-08-26T15:05:31.107Z,8.20
2022-08-26T15:08:36.774Z,10.00
2022-08-26T15:11:41.692Z,11.40
2022-08-26T15:14:45.073Z,8.00
2022-08-26T15:17:48.420Z,8.20
2022-08-26T15:20:53.007Z,8.00
2022-08-26T15:23:56.341Z,10.00
2022-08-26T15:27:01.207Z,7.00
2022-08-26T15:30:06.213Z,9.00
2022-08-26T15:33:14.966Z,9.00
2022-08-26T15:36:19.734Z,9.25
2022-08-26T15:39:23.154Z,9.00
2022-08-26T15:42:28.002Z,10.00
2022-08-26T15:45:33.809Z,9.00
2022-08-26T15:48:37.213Z,10.00
2022-08-26T15:51:45.328Z,10.00
2022-08-26T15:54:49.377Z,8.00
2022-08-26T15:57:58.136Z,10.00
2022-08-26T16:01:01.882Z,10.00
2022-08-26T16:04:06.602Z,12.00
2022-08-26T16:07:10.067Z,11.75
2022-08-26T16:10:13.632Z,10.00
2022-08-26T16:13:19.811Z,9.60
2022-08-26T16:16:23.667Z,11.00
2022-08-26T16:19:27.096Z,11.40
2022-08-26T16:22:31.805Z,11.60
2022-08-26T16:25:36.819Z,11.00
2022-08-26T16:28:41.608Z,12.00
2022-08-26T16:31:47.775Z,14.00
2022-08-26T16:34:56.446Z,11.00
2022-08-26T16:38:00.367Z,11.00
2022-08-26T16:41:04.256Z,13.40
2022-08-26T16:44:11.586Z,11.00
2022-08-26T16:47:16.879Z,12.40
2022-08-26T16:50:21.529Z,12.00
2022-08-26T16:53:25.118Z,12.50
2022-08-26T16:56:34.361Z,10.00
2022-08-26T16:59:41.540Z,14.33
2022-08-26T17:02:46.117Z,13.00
2022-08-26T17:05:50.006Z,15.40
2022-08-26T17:08:53.598Z,13.50
2022-08-26T17:11:57.247Z,14.00
2022-08-26T17:15:02.063Z,13.00
2022-08-26T17:18:06.905Z,15.00
2022-08-26T17:21:13.717Z,13.60
2022-08-26T17:24:17.410Z,14.00
2022-08-26T17:27:20.947Z,12.00
2022-08-26T17:30:27.052Z,11.00
2022-08-26T17:33:33.523Z,14.00
2022-08-26T17:36:37.242Z,13.00
2022-08-26T17:39:44.001Z,15.60
2022-08-26T17:42:48.078Z,13.00
2022-08-26T17:45:52.873Z,11.00
2022-08-26T17:48:56.660Z,15.00
2022-08-26T17:52:00.005Z,14.00
2022-08-26T17:55:03.359Z,12.00
2022-08-26T17:58:07.110Z,13.00
2022-08-26T18:01:12.686Z,15.00
2022-08-26T18:04:16.410Z,12.00
2022-08-26T18:07:20.560Z,15.00
2022-08-26T18:10:25.656Z,15.00
2022-08-26T18:13:28.976Z,16.40
2022-08-26T18:16:38.307Z,14.00
2022-08-26T18:22:49.838Z,14.40
2022-08-26T18:25:53.949Z,13.00
2022-08-26T18:28:57.365Z,13.00
2022-08-26T18:32:02.966Z,12.00
2022-08-26T18:35:07.036Z,11.60
2022-08-26T18:38:11.943Z,10.00
2022-08-26T18:41:15.603Z,9.20
2022-08-26T18:44:21.424Z,11.00
2022-08-26T18:47:26.197Z,12.60
2022-08-26T18:50:30.368Z,10.75
2022-08-26T18:53:35.499Z,13.40
2022-08-26T18:56:40.726Z,11.00
2022-08-26T18:59:44.167Z,10.00
2022-08-26T19:02:51.927Z,12.00
2022-08-26T19:05:57.246Z,14.00
2022-08-26T19:09:01.296Z,11.80
2022-08-26T19:12:06.203Z,14.00
2022-08-26T19:15:10.728Z,14.40
2022-08-26T19:18:16.658Z,12.25
2022-08-26T19:21:21.252Z,13.00
2022-08-26T19:24:27.325Z,17.00
2022-08-26T19:27:32.827Z,11.20
2022-08-26T19:30:39.095Z,14.00
2022-08-26T19:33:45.529Z,15.40
2022-08-26T19:36:49.053Z,15.00
2022-08-26T19:39:52.576Z,16.00
2022-08-26T19:42:55.996Z,14.00
2022-08-26T19:45:59.388Z,14.00
2022-08-26T19:49:04.852Z,15.00
2022-08-26T19:52:08.261Z,11.50
2022-08-26T19:55:13.353Z,14.60
2022-08-26T19:58:16.636Z,15.00
2022-08-26T20:01:20.534Z,25.40
2022-08-26T20:04:25.513Z,20.00
2022-08-26T20:07:31.081Z,21.00
2022-08-26T20:10:38.569Z,18.00
2022-08-26T20:13:44.970Z,17.20
2022-08-26T20:16:49.417Z,20.00
2022-08-26T20:20:28.459Z,20.60
2022-08-26T20:23:37.745Z,27.40
2022-08-26T20:26:44.247Z,25.40
2022-08-26T20:29:47.617Z,18.00
2022-08-26T20:32:50.984Z,21.00
2022-08-26T20:35:55.734Z,19.80
2022-08-26T20:39:00.032Z,20.40
2022-08-26T20:42:03.764Z,21.80
2022-08-26T20:45:08.753Z,27.40
2022-08-26T20:48:12.252Z,23.60
2022-08-26T20:51:17.489Z,23.00
2022-08-26T20:54:26.172Z,25.00
2022-08-26T20:57:31.374Z,28.60
2022-08-26T21:00:34.824Z,22.00
2022-08-26T21:03:38.639Z,27.60
2022-08-26T21:06:49.010Z,26.00
2022-08-26T21:09:55.818Z,26.00
2022-08-26T21:12:59.701Z,29.60
2022-08-26T21:16:03.324Z,32.00
2022-08-26T21:19:08.428Z,31.40
2022-08-26T21:22:13.185Z,27.25
2022-08-26T21:25:16.519Z,21.20
2022-08-26T21:28:19.798Z,26.00
2022-08-26T21:31:25.533Z,23.75
2022-08-26T21:34:29.018Z,21.80
2022-08-26T21:37:33.918Z,22.00
2022-08-26T21:40:37.278Z,21.60
2022-08-26T21:43:41.753Z,21.00
2022-08-26T21:46:46.412Z,22.80
2022-08-26T21:49:49.900Z,23.00
2022-08-26T21:52:57.496Z,23.20
2022-08-26T21:56:03.989Z,20.00
2022-08-26T21:59:08.621Z,21.80
2022-08-26T22:02:13.583Z,30.00
2022-08-26T22:05:17.080Z,30.00
2022-08-26T22:08:23.976Z,24.00
2022-08-26T22:11:32.805Z,27.00
2022-08-26T22:14:36.497Z,25.00
2022-08-26T22:17:39.953Z,24.20
2022-08-26T22:20:44.104Z,26.00
2022-08-26T22:23:48.994Z,25.00
2022-08-26T22:26:52.699Z,25.80
2022-08-26T22:29:56.130Z,30.00
2022-08-26T22:32:59.534Z,26.00
2022-08-26T22:36:03.074Z,22.20
2022-08-26T22:39:07.789Z,27.00
2022-08-26T22:42:14.020Z,22.60
2022-08-26T22:45:17.453Z,20.20
2022-08-26T22:48:23.799Z,24.80
2022-08-26T22:51:28.010Z,21.00
2022-08-26T22:54:33.005Z,26.00
2022-08-26T22:57:36.351Z,19.00
2022-08-26T23:00:40.587Z,25.40
2022-08-26T23:03:44.186Z,23.50
2022-08-26T23:06:48.075Z,23.00
2022-08-26T23:09:52.944Z,24.00
2022-08-26T23:12:57.618Z,22.00
2022-08-26T23:16:02.358Z,24.60
2022-08-26T23:19:08.446Z,24.75
2022-08-26T23:22:12.374Z,23.00
2022-08-26T23:25:17.387Z,25.00
2022-08-26T23:28:21.641Z,23.80
2022-08-26T23:31:25.430Z,23.50
2022-08-26T23:34:46.588Z,23.00
2022-08-26T23:37:53.306Z,24.75
2022-08-26T23:40:58.302Z,29.60
2022-08-26T23:44:03.555Z,26.80
2022-08-26T23:47:07.824Z,26.00
2022-08-26T23:50:11.815Z,30.00
2022-08-26T23:53:19.649Z,28.40
2022-08-26T23:56:24.408Z,30.60
2022-08-26T23:59:30.042Z,25.00
